sensor_id;sensor_type;location;lat;lon;timestamp;pressure;altitude;pressure_sealevel;temperature;humidity
71996;BME280;59862;47.732;7.346;2023-04-08T00:01:26;98390.92;;;5.13;87.02
71996;BME280;59862;47.732;7.346;2023-04-08T00:03:54;98384.21;;;5.09;87.08
71996;BME280;59862;47.732;7.346;2023-04-08T00:06:21;98380.42;;;5.02;87.11
71996;BME280;59862;47.732;7.346;2023-04-08T00:08:49;98384.59;;;4.85;87.42
71996;BME280;59862;47.732;7.346;2023-04-08T00:11:16;98380.75;;;4.74;87.85
71996;BME280;59862;47.732;7.346;2023-04-08T00:13:44;98381.30;;;4.78;88.06
71996;BME280;59862;47.732;7.346;2023-04-08T00:16:11;98379.49;;;4.78;88.06
71996;BME280;59862;47.732;7.346;2023-04-08T00:18:39;98380.46;;;4.68;88.07
71996;BME280;59862;47.732;7.346;2023-04-08T00:21:06;98378.33;;;4.61;88.22
71996;BME280;59862;47.732;7.346;2023-04-08T00:23:34;98381.20;;;4.54;88.28
71996;BME280;59862;47.732;7.346;2023-04-08T00:26:02;98371.09;;;4.48;88.35
71996;BME280;59862;47.732;7.346;2023-04-08T00:28:30;98372.34;;;4.44;88.47
71996;BME280;59862;47.732;7.346;2023-04-08T00:30:58;98369.69;;;4.44;88.65
71996;BME280;59862;47.732;7.346;2023-04-08T00:33:26;98377.33;;;4.43;88.73
71996;BME280;59862;47.732;7.346;2023-04-08T00:35:54;98382.27;;;4.42;88.73
71996;BME280;59862;47.732;7.346;2023-04-08T00:38:21;98382.42;;;4.41;88.70
71996;BME280;59862;47.732;7.346;2023-04-08T00:40:48;98373.97;;;4.41;88.66
71996;BME280;59862;47.732;7.346;2023-04-08T00:43:16;98382.12;;;4.34;88.61
71996;BME280;59862;47.732;7.346;2023-04-08T00:45:46;98378.02;;;4.21;88.79
71996;BME280;59862;47.732;7.346;2023-04-08T00:48:14;98377.53;;;4.21;88.93
71996;BME280;59862;47.732;7.346;2023-04-08T00:50:43;98376.34;;;4.20;88.89
71996;BME280;59862;47.732;7.346;2023-04-08T00:53:14;98378.08;;;4.15;88.86
71996;BME280;59862;47.732;7.346;2023-04-08T00:55:42;98380.65;;;4.11;88.87
71996;BME280;59862;47.732;7.346;2023-04-08T00:58:11;98382.23;;;4.08;88.89
71996;BME280;59862;47.732;7.346;2023-04-08T01:00:42;98377.88;;;4.07;88.89
71996;BME280;59862;47.732;7.346;2023-04-08T01:03:17;98380.34;;;3.90;89.03
71996;BME280;59862;47.732;7.346;2023-04-08T01:06:09;98370.55;;;3.90;89.30
71996;BME280;59862;47.732;7.346;2023-04-08T01:08:37;98379.72;;;3.92;89.38
71996;BME280;59862;47.732;7.346;2023-04-08T01:11:08;98377.80;;;3.88;89.31
71996;BME280;59862;47.732;7.346;2023-04-08T01:13:38;98374.81;;;3.87;89.32
71996;BME280;59862;47.732;7.346;2023-04-08T01:16:09;98379.41;;;3.85;89.33
71996;BME280;59862;47.732;7.346;2023-04-08T01:18:38;98384.02;;;3.83;89.34
71996;BME280;59862;47.732;7.346;2023-04-08T01:21:07;98381.61;;;3.80;89.36
71996;BME280;59862;47.732;7.346;2023-04-08T01:26:05;98389.95;;;3.81;89.53
71996;BME280;59862;47.732;7.346;2023-04-08T01:28:33;98391.75;;;3.80;89.59
71996;BME280;59862;47.732;7.346;2023-04-08T01:31:02;98386.67;;;3.83;89.76
71996;BME280;59862;47.732;7.346;2023-04-08T01:33:31;98385.66;;;3.90;89.87
71996;BME280;59862;47.732;7.346;2023-04-08T01:36:00;98386.59;;;3.94;89.86
71996;BME280;59862;47.732;7.346;2023-04-08T01:38:29;98389.52;;;4.01;89.77
71996;BME280;59862;47.732;7.346;2023-04-08T01:40:58;98395.67;;;4.01;89.66
71996;BME280;59862;47.732;7.346;2023-04-08T01:43:26;98390.42;;;3.96;89.59
71996;BME280;59862;47.732;7.346;2023-04-08T01:45:57;98390.98;;;3.99;89.61
71996;BME280;59862;47.732;7.346;2023-04-08T01:48:26;98389.41;;;4.02;89.63
71996;BME280;59862;47.732;7.346;2023-04-08T01:50:55;98383.56;;;3.93;89.73
71996;BME280;59862;47.732;7.346;2023-04-08T01:53:24;98387.55;;;3.93;89.88
71996;BME280;59862;47.732;7.346;2023-04-08T01:55:56;98387.55;;;3.93;89.91
71996;BME280;59862;47.732;7.346;2023-04-08T01:58:22;98393.81;;;3.92;89.79
71996;BME280;59862;47.732;7.346;2023-04-08T02:00:53;98382.57;;;3.79;89.71
71996;BME280;59862;47.732;7.346;2023-04-08T02:03:22;98380.53;;;3.77;89.76
71996;BME280;59862;47.732;7.346;2023-04-08T02:05:50;98377.17;;;3.75;89.80
71996;BME280;59862;47.732;7.346;2023-04-08T02:08:18;98390.11;;;3.74;89.73
71996;BME280;59862;47.732;7.346;2023-04-08T02:10:45;98394.23;;;3.72;89.69
71996;BME280;59862;47.732;7.346;2023-04-08T02:13:13;98393.01;;;3.71;89.63
71996;BME280;59862;47.732;7.346;2023-04-08T02:15:43;98392.69;;;3.64;89.62
71996;BME280;59862;47.732;7.346;2023-04-08T02:18:19;98385.72;;;3.63;89.73
71996;BME280;59862;47.732;7.346;2023-04-08T02:20:52;98391.73;;;3.65;89.82
71996;BME280;59862;47.732;7.346;2023-04-08T02:23:23;98392.92;;;3.67;89.77
71996;BME280;59862;47.732;7.346;2023-04-08T02:25:53;98394.50;;;3.64;89.71
71996;BME280;59862;47.732;7.346;2023-04-08T02:28:21;98398.48;;;3.64;89.64
71996;BME280;59862;47.732;7.346;2023-04-08T02:30:51;98388.99;;;3.61;89.69
71996;BME280;59862;47.732;7.346;2023-04-08T02:33:21;98392.83;;;3.63;89.73
71996;BME280;59862;47.732;7.346;2023-04-08T02:35:52;98392.22;;;3.65;89.85
71996;BME280;59862;47.732;7.346;2023-04-08T02:38:21;98388.09;;;3.66;89.99
71996;BME280;59862;47.732;7.346;2023-04-08T02:40:49;98388.41;;;3.73;90.12
71996;BME280;59862;47.732;7.346;2023-04-08T02:43:17;98382.94;;;3.80;90.28
71996;BME280;59862;47.732;7.346;2023-04-08T02:45:45;98384.72;;;3.85;90.35
71996;BME280;59862;47.732;7.346;2023-04-08T02:48:12;98386.47;;;3.90;90.34
71996;BME280;59862;47.732;7.346;2023-04-08T02:50:40;98381.87;;;3.92;90.29
71996;BME280;59862;47.732;7.346;2023-04-08T02:53:08;98385.14;;;3.90;90.22
71996;BME280;59862;47.732;7.346;2023-04-08T02:55:36;98390.73;;;3.87;90.13
71996;BME280;59862;47.732;7.346;2023-04-08T02:58:04;98383.56;;;3.78;90.11
71996;BME280;59862;47.732;7.346;2023-04-08T03:00:32;98389.58;;;3.80;90.14
71996;BME280;59862;47.732;7.346;2023-04-08T03:03:00;98386.92;;;3.80;90.12
71996;BME280;59862;47.732;7.346;2023-04-08T03:05:27;98391.52;;;3.78;90.15
71996;BME280;59862;47.732;7.346;2023-04-08T03:07:55;98393.80;;;3.77;90.24
71996;BME280;59862;47.732;7.346;2023-04-08T03:10:22;98395.13;;;3.77;90.27
71996;BME280;59862;47.732;7.346;2023-04-08T03:12:50;98395.50;;;3.78;90.33
71996;BME280;59862;47.732;7.346;2023-04-08T03:15:18;98394.52;;;3.79;90.38
71996;BME280;59862;47.732;7.346;2023-04-08T03:17:45;98385.59;;;3.80;90.43
71996;BME280;59862;47.732;7.346;2023-04-08T03:20:13;98388.33;;;3.84;90.41
71996;BME280;59862;47.732;7.346;2023-04-08T03:22:40;98389.66;;;3.84;90.37
71996;BME280;59862;47.732;7.346;2023-04-08T03:25:08;98398.94;;;3.69;90.45
71996;BME280;59862;47.732;7.346;2023-04-08T03:27:36;98398.48;;;3.64;90.70
71996;BME280;59862;47.732;7.346;2023-04-08T03:30:05;98397.95;;;3.55;91.00
71996;BME280;59862;47.732;7.346;2023-04-08T03:32:32;98408.37;;;3.62;91.09
71996;BME280;59862;47.732;7.346;2023-04-08T03:35:00;98406.44;;;3.64;90.97
71996;BME280;59862;47.732;7.346;2023-04-08T03:37:27;98408.61;;;3.64;90.83
71996;BME280;59862;47.732;7.346;2023-04-08T03:39:55;98411.74;;;3.64;90.75
71996;BME280;59862;47.732;7.346;2023-04-08T03:42:22;98416.85;;;3.61;90.66
71996;BME280;59862;47.732;7.346;2023-04-08T03:44:49;98415.72;;;3.64;90.59
71996;BME280;59862;47.732;7.346;2023-04-08T03:47:17;98419.70;;;3.64;90.48
71996;BME280;59862;47.732;7.346;2023-04-08T03:49:44;98420.92;;;3.65;90.43
71996;BME280;59862;47.732;7.346;2023-04-08T03:52:12;98421.58;;;3.73;90.48
71996;BME280;59862;47.732;7.346;2023-04-08T03:54:39;98417.30;;;3.81;90.48
71996;BME280;59862;47.732;7.346;2023-04-08T03:57:06;98413.02;;;3.90;90.50
71996;BME280;59862;47.732;7.346;2023-04-08T03:59:34;98414.01;;;4.04;90.49
71996;BME280;59862;47.732;7.346;2023-04-08T04:02:02;98416.10;;;4.16;90.47
71996;BME280;59862;47.732;7.346;2023-04-08T04:04:29;98420.36;;;4.22;90.44
71996;BME280;59862;47.732;7.346;2023-04-08T04:06:57;98409.86;;;4.11;90.59
71996;BME280;59862;47.732;7.346;2023-04-08T04:09:24;98412.14;;;4.10;90.89
71996;BME280;59862;47.732;7.346;2023-04-08T04:11:52;98417.45;;;3.95;91.13
71996;BME280;59862;47.732;7.346;2023-04-08T04:14:19;98419.88;;;3.93;91.15
71996;BME280;59862;47.732;7.346;2023-04-08T04:16:46;98420.73;;;3.93;91.15
71996;BME280;59862;47.732;7.346;2023-04-08T04:19:14;98420.90;;;4.01;91.09
71996;BME280;59862;47.732;7.346;2023-04-08T04:21:43;98415.36;;;4.14;90.88
71996;BME280;59862;47.732;7.346;2023-04-08T04:24:11;98418.53;;;4.13;90.66
71996;BME280;59862;47.732;7.346;2023-04-08T04:26:42;98415.87;;;4.13;90.61
71996;BME280;59862;47.732;7.346;2023-04-08T04:29:09;98421.41;;;4.16;90.61
71996;BME280;59862;47.732;7.346;2023-04-08T04:31:37;98427.62;;;4.20;90.60
71996;BME280;59862;47.732;7.346;2023-04-08T04:34:04;98428.55;;;4.25;90.65
71996;BME280;59862;47.732;7.346;2023-04-08T04:36:32;98429.85;;;4.30;90.72
71996;BME280;59862;47.732;7.346;2023-04-08T04:38:59;98428.70;;;4.23;90.86
71996;BME280;59862;47.732;7.346;2023-04-08T04:41:26;98430.98;;;4.22;91.02
71996;BME280;59862;47.732;7.346;2023-04-08T04:43:54;98433.64;;;4.22;91.11
71996;BME280;59862;47.732;7.346;2023-04-08T04:46:21;98434.46;;;4.13;91.19
71996;BME280;59862;47.732;7.346;2023-04-08T04:48:48;98437.34;;;4.16;91.19
71996;BME280;59862;47.732;7.346;2023-04-08T04:51:16;98435.95;;;4.21;91.15
71996;BME280;59862;47.732;7.346;2023-04-08T04:53:44;98439.69;;;4.24;91.02
71996;BME280;59862;47.732;7.346;2023-04-08T04:56:11;98442.43;;;4.13;90.65
71996;BME280;59862;47.732;7.346;2023-04-08T04:58:39;98441.19;;;4.17;90.57
71996;BME280;59862;47.732;7.346;2023-04-08T05:01:06;98437.43;;;4.20;90.42
71996;BME280;59862;47.732;7.346;2023-04-08T05:03:34;98438.70;;;4.25;90.30
71996;BME280;59862;47.732;7.346;2023-04-08T05:06:01;98442.42;;;4.28;90.27
71996;BME280;59862;47.732;7.346;2023-04-08T05:08:29;98445.81;;;4.25;90.27
71996;BME280;59862;47.732;7.346;2023-04-08T05:10:56;98441.27;;;4.21;90.32
71996;BME280;59862;47.732;7.346;2023-04-08T05:13:26;98449.86;;;4.19;90.44
71996;BME280;59862;47.732;7.346;2023-04-08T05:15:53;98446.21;;;4.20;90.48
71996;BME280;59862;47.732;7.346;2023-04-08T05:18:20;98449.88;;;4.29;90.45
71996;BME280;59862;47.732;7.346;2023-04-08T05:20:48;98449.60;;;4.37;90.34
71996;BME280;59862;47.732;7.346;2023-04-08T05:23:15;98452.13;;;4.48;90.16
71996;BME280;59862;47.732;7.346;2023-04-08T05:25:43;98454.45;;;4.47;89.90
71996;BME280;59862;47.732;7.346;2023-04-08T05:28:10;98453.97;;;4.48;89.86
71996;BME280;59862;47.732;7.346;2023-04-08T05:30:38;98459.30;;;4.57;89.76
71996;BME280;59862;47.732;7.346;2023-04-08T05:33:05;98463.18;;;4.59;89.70
71996;BME280;59862;47.732;7.346;2023-04-08T05:35:33;98461.23;;;4.71;89.61
71996;BME280;59862;47.732;7.346;2023-04-08T05:38:01;98462.83;;;4.83;89.47
71996;BME280;59862;47.732;7.346;2023-04-08T05:40:29;98465.00;;;4.93;89.32
71996;BME280;59862;47.732;7.346;2023-04-08T05:42:56;98463.70;;;5.02;89.13
71996;BME280;59862;47.732;7.346;2023-04-08T05:45:24;98463.85;;;5.10;88.96
71996;BME280;59862;47.732;7.346;2023-04-08T05:47:51;98462.81;;;5.17;88.79
71996;BME280;59862;47.732;7.346;2023-04-08T05:50:18;98468.47;;;5.18;88.65
71996;BME280;59862;47.732;7.346;2023-04-08T05:52:46;98470.16;;;5.19;88.75
71996;BME280;59862;47.732;7.346;2023-04-08T05:55:14;98476.61;;;5.26;88.77
71996;BME280;59862;47.732;7.346;2023-04-08T05:57:41;98475.56;;;5.42;88.73
71996;BME280;59862;47.732;7.346;2023-04-08T06:00:09;98483.20;;;5.60;88.59
71996;BME280;59862;47.732;7.346;2023-04-08T06:02:37;98476.10;;;5.74;88.41
71996;BME280;59862;47.732;7.346;2023-04-08T06:05:05;98481.68;;;5.86;88.15
71996;BME280;59862;47.732;7.346;2023-04-08T06:07:33;98482.64;;;5.95;87.86
71996;BME280;59862;47.732;7.346;2023-04-08T06:10:01;98480.41;;;5.90;87.70
71996;BME280;59862;47.732;7.346;2023-04-08T06:12:30;98481.43;;;6.03;87.67
71996;BME280;59862;47.732;7.346;2023-04-08T06:14:59;98484.53;;;6.22;87.54
71996;BME280;59862;47.732;7.346;2023-04-08T06:17:27;98477.42;;;6.36;87.32
71996;BME280;59862;47.732;7.346;2023-04-08T06:19:54;98486.52;;;6.43;87.27
71996;BME280;59862;47.732;7.346;2023-04-08T06:22:22;98483.55;;;6.69;87.16
71996;BME280;59862;47.732;7.346;2023-04-08T06:24:49;98487.88;;;6.70;86.80
71996;BME280;59862;47.732;7.346;2023-04-08T06:27:16;98487.02;;;6.69;86.54
71996;BME280;59862;47.732;7.346;2023-04-08T06:29:44;98481.16;;;6.66;86.08
71996;BME280;59862;47.732;7.346;2023-04-08T06:32:13;98484.97;;;6.77;86.03
71996;BME280;59862;47.732;7.346;2023-04-08T06:34:43;98481.50;;;6.80;86.03
71996;BME280;59862;47.732;7.346;2023-04-08T06:37:10;98487.69;;;6.81;86.00
71996;BME280;59862;47.732;7.346;2023-04-08T06:39:38;98491.94;;;7.01;85.94
71996;BME280;59862;47.732;7.346;2023-04-08T06:42:05;98491.42;;;7.15;85.46
71996;BME280;59862;47.732;7.346;2023-04-08T06:44:33;98496.39;;;7.10;84.93
71996;BME280;59862;47.732;7.346;2023-04-08T06:47:00;98504.56;;;7.13;84.19
71996;BME280;59862;47.732;7.346;2023-04-08T06:49:28;98500.67;;;7.07;83.95
71996;BME280;59862;47.732;7.346;2023-04-08T06:51:55;98502.56;;;6.97;83.68
71996;BME280;59862;47.732;7.346;2023-04-08T06:54:23;98508.14;;;6.90;83.85
71996;BME280;59862;47.732;7.346;2023-04-08T06:56:50;98506.30;;;7.04;83.99
71996;BME280;59862;47.732;7.346;2023-04-08T06:59:18;98510.74;;;7.13;83.72
71996;BME280;59862;47.732;7.346;2023-04-08T07:01:45;98507.43;;;7.15;83.29
71996;BME280;59862;47.732;7.346;2023-04-08T07:04:13;98509.08;;;7.12;83.08
71996;BME280;59862;47.732;7.346;2023-04-08T07:06:40;98507.83;;;7.20;83.13
71996;BME280;59862;47.732;7.346;2023-04-08T07:09:07;98513.77;;;7.01;82.69
71996;BME280;59862;47.732;7.346;2023-04-08T07:11:35;98517.61;;;7.02;82.74
71996;BME280;59862;47.732;7.346;2023-04-08T07:14:03;98514.30;;;7.18;82.96
71996;BME280;59862;47.732;7.346;2023-04-08T07:16:30;98515.38;;;7.38;82.34
71996;BME280;59862;47.732;7.346;2023-04-08T07:18:58;98520.59;;;7.75;81.73
71996;BME280;59862;47.732;7.346;2023-04-08T07:21:25;98522.25;;;7.94;80.15
71996;BME280;59862;47.732;7.346;2023-04-08T07:23:53;98524.57;;;8.14;79.75
71996;BME280;59862;47.732;7.346;2023-04-08T07:26:21;98530.11;;;8.34;78.83
71996;BME280;59862;47.732;7.346;2023-04-08T07:28:48;98518.44;;;8.65;78.64
71996;BME280;59862;47.732;7.346;2023-04-08T07:31:18;98527.31;;;8.99;77.51
71996;BME280;59862;47.732;7.346;2023-04-08T07:33:46;98527.70;;;9.12;76.03
71996;BME280;59862;47.732;7.346;2023-04-08T07:36:14;98522.08;;;9.36;75.53
71996;BME280;59862;47.732;7.346;2023-04-08T07:38:43;98529.78;;;9.27;74.94
71996;BME280;59862;47.732;7.346;2023-04-08T07:41:11;98527.09;;;8.89;75.45
71996;BME280;59862;47.732;7.346;2023-04-08T07:43:39;98527.09;;;8.89;75.45
71996;BME280;59862;47.732;7.346;2023-04-08T07:46:07;98540.41;;;8.51;75.09
71996;BME280;59862;47.732;7.346;2023-04-08T07:48:35;98534.26;;;8.29;76.11
71996;BME280;59862;47.732;7.346;2023-04-08T07:51:08;98532.48;;;8.20;77.00
71996;BME280;59862;47.732;7.346;2023-04-08T07:53:35;98538.30;;;8.33;77.60
71996;BME280;59862;47.732;7.346;2023-04-08T07:56:09;98537.23;;;8.26;77.61
71996;BME280;59862;47.732;7.346;2023-04-08T07:58:34;98539.93;;;8.30;76.78
71996;BME280;59862;47.732;7.346;2023-04-08T08:01:01;98539.93;;;8.30;76.78
71996;BME280;59862;47.732;7.346;2023-04-08T08:03:29;98540.42;;;8.29;77.40
71996;BME280;59862;47.732;7.346;2023-04-08T08:05:56;98542.45;;;8.53;76.62
71996;BME280;59862;47.732;7.346;2023-04-08T08:08:24;98539.49;;;8.90;76.26
71996;BME280;59862;47.732;7.346;2023-04-08T08:10:51;98538.37;;;9.00;75.90
71996;BME280;59862;47.732;7.346;2023-04-08T08:13:18;98542.12;;;9.15;75.09
71996;BME280;59862;47.732;7.346;2023-04-08T08:15:51;98547.52;;;9.36;74.65
71996;BME280;59862;47.732;7.346;2023-04-08T08:18:19;98541.97;;;8.83;74.46
71996;BME280;59862;47.732;7.346;2023-04-08T08:20:47;98534.39;;;9.12;74.92
71996;BME280;59862;47.732;7.346;2023-04-08T08:23:14;98533.54;;;9.62;74.78
71996;BME280;59862;47.732;7.346;2023-04-08T08:25:42;98533.54;;;9.62;74.78
71996;BME280;59862;47.732;7.346;2023-04-08T08:28:10;98543.98;;;10.01;73.58
71996;BME280;59862;47.732;7.346;2023-04-08T08:30:37;98545.15;;;9.86;72.15
71996;BME280;59862;47.732;7.346;2023-04-08T08:33:05;98538.81;;;10.40;72.31
71996;BME280;59862;47.732;7.346;2023-04-08T08:35:32;98541.83;;;10.61;71.15
71996;BME280;59862;47.732;7.346;2023-04-08T08:38:00;98546.95;;;10.91;70.51
71996;BME280;59862;47.732;7.346;2023-04-08T08:40:28;98546.89;;;11.07;68.66
71996;BME280;59862;47.732;7.346;2023-04-08T08:42:55;98548.08;;;11.00;69.50
71996;BME280;59862;47.732;7.346;2023-04-08T08:45:24;98547.80;;;11.34;67.75
71996;BME280;59862;47.732;7.346;2023-04-08T08:47:51;98553.66;;;11.37;67.81
71996;BME280;59862;47.732;7.346;2023-04-08T08:50:19;98552.80;;;11.45;68.02
71996;BME280;59862;47.732;7.346;2023-04-08T08:52:50;98559.94;;;11.91;67.54
71996;BME280;59862;47.732;7.346;2023-04-08T08:55:19;98567.53;;;12.14;65.96
71996;BME280;59862;47.732;7.346;2023-04-08T08:57:51;98564.28;;;11.96;65.17
71996;BME280;59862;47.732;7.346;2023-04-08T09:00:18;98564.34;;;11.88;65.23
71996;BME280;59862;47.732;7.346;2023-04-08T09:02:47;98564.25;;;12.00;65.48
71996;BME280;59862;47.732;7.346;2023-04-08T09:05:14;98568.00;;;12.37;64.74
71996;BME280;59862;47.732;7.346;2023-04-08T09:07:42;98562.58;;;12.45;64.41
71996;BME280;59862;47.732;7.346;2023-04-08T09:10:10;98568.14;;;12.62;63.77
71996;BME280;59862;47.732;7.346;2023-04-08T09:13:12;98567.61;;;12.81;63.12
71996;BME280;59862;47.732;7.346;2023-04-08T09:15:14;98576.56;;;12.17;63.50
71996;BME280;59862;47.732;7.346;2023-04-08T09:17:41;98569.33;;;11.69;65.35
71996;BME280;59862;47.732;7.346;2023-04-08T09:20:10;98580.97;;;11.53;66.42
71996;BME280;59862;47.732;7.346;2023-04-08T09:22:59;98576.72;;;11.28;66.62
71996;BME280;59862;47.732;7.346;2023-04-08T09:25:32;98577.05;;;11.68;65.91
71996;BME280;59862;47.732;7.346;2023-04-08T09:28:00;98575.64;;;12.06;65.80
71996;BME280;59862;47.732;7.346;2023-04-08T09:30:28;98578.38;;;12.25;65.93
71996;BME280;59862;47.732;7.346;2023-04-08T09:32:58;98579.80;;;12.17;64.71
71996;BME280;59862;47.732;7.346;2023-04-08T09:35:26;98584.20;;;12.10;65.87
71996;BME280;59862;47.732;7.346;2023-04-08T09:37:54;98588.73;;;12.09;65.86
71996;BME280;59862;47.732;7.346;2023-04-08T09:40:22;98585.59;;;11.75;65.96
71996;BME280;59862;47.732;7.346;2023-04-08T09:42:52;98578.96;;;11.51;66.36
71996;BME280;59862;47.732;7.346;2023-04-08T09:45:21;98584.62;;;11.68;66.42
71996;BME280;59862;47.732;7.346;2023-04-08T09:50:35;98586.88;;;12.33;63.42
71996;BME280;59862;47.732;7.346;2023-04-08T09:53:49;98585.52;;;12.74;63.71
71996;BME280;59862;47.732;7.346;2023-04-08T09:55:33;98584.42;;;12.83;62.59
71996;BME280;59862;47.732;7.346;2023-04-08T09:58:51;98589.91;;;13.08;61.57
71996;BME280;59862;47.732;7.346;2023-04-08T10:00:36;98588.95;;;13.05;61.13
71996;BME280;59862;47.732;7.346;2023-04-08T10:05:52;98587.15;;;13.16;60.72
71996;BME280;59862;47.732;7.346;2023-04-08T10:08:23;98584.13;;;12.97;60.89
71996;BME280;59862;47.732;7.346;2023-04-08T10:10:52;98586.84;;;12.41;62.73
71996;BME280;59862;47.732;7.346;2023-04-08T10:13:22;98584.41;;;12.68;61.69
71996;BME280;59862;47.732;7.346;2023-04-08T10:15:50;98583.27;;;12.81;61.67
71996;BME280;59862;47.732;7.346;2023-04-08T10:21:31;98578.21;;;13.30;60.10
71996;BME280;59862;47.732;7.346;2023-04-08T10:23:59;98574.33;;;13.18;60.66
71996;BME280;59862;47.732;7.346;2023-04-08T10:26:51;98576.34;;;13.45;58.81
71996;BME280;59862;47.732;7.346;2023-04-08T10:31:48;98575.53;;;13.70;59.41
71996;BME280;59862;47.732;7.346;2023-04-08T10:34:23;98570.81;;;13.57;59.34
71996;BME280;59862;47.732;7.346;2023-04-08T10:36:53;98571.39;;;13.09;59.37
71996;BME280;59862;47.732;7.346;2023-04-08T10:39:23;98566.88;;;13.02;60.59
71996;BME280;59862;47.732;7.346;2023-04-08T10:41:52;98570.70;;;12.92;58.98
71996;BME280;59862;47.732;7.346;2023-04-08T10:44:22;98565.98;;;13.38;58.53
71996;BME280;59862;47.732;7.346;2023-04-08T10:46:51;98561.48;;;13.60;58.61
71996;BME280;59862;47.732;7.346;2023-04-08T10:49:18;98566.13;;;13.91;57.25
71996;BME280;59862;47.732;7.346;2023-04-08T10:51:48;98568.47;;;13.80;57.78
71996;BME280;59862;47.732;7.346;2023-04-08T10:54:17;98566.55;;;13.48;58.81
71996;BME280;59862;47.732;7.346;2023-04-08T10:56:51;98572.12;;;13.32;59.98
71996;BME280;59862;47.732;7.346;2023-04-08T10:59:30;98570.01;;;12.94;60.67
71996;BME280;59862;47.732;7.346;2023-04-08T11:01:58;98569.15;;;13.13;61.06
71996;BME280;59862;47.732;7.346;2023-04-08T11:04:27;98570.65;;;12.82;60.99
71996;BME280;59862;47.732;7.346;2023-04-08T11:06:54;98573.56;;;12.91;60.81
71996;BME280;59862;47.732;7.346;2023-04-08T11:09:23;98573.56;;;12.58;61.93
71996;BME280;59862;47.732;7.346;2023-04-08T11:11:51;98569.61;;;12.83;60.99
71996;BME280;59862;47.732;7.346;2023-04-08T11:14:19;98564.03;;;12.84;60.85
71996;BME280;59862;47.732;7.346;2023-04-08T11:16:47;98566.34;;;12.54;60.08
71996;BME280;59862;47.732;7.346;2023-04-08T11:19:15;98564.92;;;12.44;60.28
71996;BME280;59862;47.732;7.346;2023-04-08T11:21:45;98570.30;;;12.25;61.15
71996;BME280;59862;47.732;7.346;2023-04-08T11:24:13;98565.41;;;12.02;60.35
71996;BME280;59862;47.732;7.346;2023-04-08T11:26:41;98565.72;;;11.80;61.45
71996;BME280;59862;47.732;7.346;2023-04-08T11:29:10;98558.83;;;11.47;63.57
71996;BME280;59862;47.732;7.346;2023-04-08T11:31:42;98564.27;;;11.66;63.76
71996;BME280;59862;47.732;7.346;2023-04-08T11:34:10;98560.97;;;11.56;63.85
71996;BME280;59862;47.732;7.346;2023-04-08T11:36:40;98561.34;;;11.83;62.92
71996;BME280;59862;47.732;7.346;2023-04-08T11:39:09;98561.03;;;11.82;62.72
71996;BME280;59862;47.732;7.346;2023-04-08T11:41:38;98558.63;;;11.87;63.47
71996;BME280;59862;47.732;7.346;2023-04-08T11:44:06;98562.45;;;11.62;64.22
71996;BME280;59862;47.732;7.346;2023-04-08T11:46:34;98562.81;;;11.90;64.78
71996;BME280;59862;47.732;7.346;2023-04-08T11:49:06;98567.80;;;12.19;64.11
71996;BME280;59862;47.732;7.346;2023-04-08T11:51:52;98564.23;;;12.46;62.50
71996;BME280;59862;47.732;7.346;2023-04-08T11:54:05;98563.88;;;12.49;61.47
71996;BME280;59862;47.732;7.346;2023-04-08T11:56:44;98567.16;;;12.77;61.37
71996;BME280;59862;47.732;7.346;2023-04-08T11:59:14;98569.59;;;12.04;60.96
71996;BME280;59862;47.732;7.346;2023-04-08T12:01:42;98567.66;;;11.60;62.86
71996;BME280;59862;47.732;7.346;2023-04-08T12:04:10;98560.15;;;11.51;65.21
71996;BME280;59862;47.732;7.346;2023-04-08T12:06:38;98558.39;;;11.31;64.87
71996;BME280;59862;47.732;7.346;2023-04-08T12:09:07;98562.92;;;11.66;65.64
71996;BME280;59862;47.732;7.346;2023-04-08T12:11:34;98571.69;;;12.40;63.46
71996;BME280;59862;47.732;7.346;2023-04-08T12:14:02;98574.01;;;12.80;62.64
71996;BME280;59862;47.732;7.346;2023-04-08T12:16:29;98570.75;;;12.88;61.30
71996;BME280;59862;47.732;7.346;2023-04-08T12:18:57;98568.33;;;13.27;59.58
71996;BME280;59862;47.732;7.346;2023-04-08T12:21:24;98564.71;;;12.68;58.36
71996;BME280;59862;47.732;7.346;2023-04-08T12:23:53;98565.88;;;12.51;58.29
71996;BME280;59862;47.732;7.346;2023-04-08T12:26:21;98565.48;;;12.91;57.57
71996;BME280;59862;47.732;7.346;2023-04-08T12:28:49;98559.69;;;12.98;56.70
71996;BME280;59862;47.732;7.346;2023-04-08T12:31:16;98560.19;;;12.83;56.86
71996;BME280;59862;47.732;7.346;2023-04-08T12:33:44;98554.95;;;13.19;56.88
71996;BME280;59862;47.732;7.346;2023-04-08T12:36:11;98560.90;;;13.54;55.68
71996;BME280;59862;47.732;7.346;2023-04-08T12:38:39;98555.63;;;13.46;55.42
71996;BME280;59862;47.732;7.346;2023-04-08T12:41:06;98560.17;;;13.45;53.03
71996;BME280;59862;47.732;7.346;2023-04-08T12:43:34;98558.20;;;13.14;55.13
71996;BME280;59862;47.732;7.346;2023-04-08T12:46:01;98549.22;;;13.83;54.82
71996;BME280;59862;47.732;7.346;2023-04-08T12:48:29;98553.11;;;13.69;54.45
71996;BME280;59862;47.732;7.346;2023-04-08T12:50:57;98550.35;;;13.74;54.82
71996;BME280;59862;47.732;7.346;2023-04-08T12:53:25;98551.14;;;13.78;55.02
71996;BME280;59862;47.732;7.346;2023-04-08T12:55:52;98545.11;;;14.33;53.86
71996;BME280;59862;47.732;7.346;2023-04-08T12:58:26;98549.52;;;14.89;53.10
71996;BME280;59862;47.732;7.346;2023-04-08T13:00:51;98542.34;;;15.20;52.63
71996;BME280;59862;47.732;7.346;2023-04-08T13:03:18;98538.15;;;15.35;51.16
71996;BME280;59862;47.732;7.346;2023-04-08T13:05:46;98539.58;;;16.64;48.39
71996;BME280;59862;47.732;7.346;2023-04-08T13:08:14;98547.18;;;16.98;47.81
71996;BME280;59862;47.732;7.346;2023-04-08T13:10:42;98543.27;;;16.31;48.02
71996;BME280;59862;47.732;7.346;2023-04-08T13:13:09;98542.51;;;16.56;47.74
71996;BME280;59862;47.732;7.346;2023-04-08T13:15:38;98542.64;;;15.21;49.81
71996;BME280;59862;47.732;7.346;2023-04-08T13:18:06;98537.07;;;14.39;51.07
71996;BME280;59862;47.732;7.346;2023-04-08T13:20:33;98535.38;;;14.87;51.33
71996;BME280;59862;47.732;7.346;2023-04-08T13:23:02;98536.88;;;15.31;50.80
71996;BME280;59862;47.732;7.346;2023-04-08T13:25:29;98539.92;;;15.55;51.77
71996;BME280;59862;47.732;7.346;2023-04-08T13:27:57;98530.54;;;15.75;51.31